Buoy 44845

sailwx.info

Track history (hours):
 
Tides and Currents Weather Stations Pressure Air Temp Water Temp Dewpoint Dewpoint Depression Visibility Wind Speed Wind Dir Waves Ship Positions

Drifting buoy 44845

Last reported at 2014-Oct-02 11:01 UTC. Time now 2014-Oct-02 12:29 UTC.
Position N 65°46' E 001°44'.

Water temperature 7.8 ° C

Date/timePositionNaut miles runAvg speedWind from/ knotsBaromVisibWave heightAir tempDewpointWater temp
2014-Oct-02 11:01N 65°46' E 001°44'1 1.1 7.8
2014-Oct-02 10:01N 65°46' E 001°41'1 1.1 7.8
2014-Oct-02 09:01N 65°45' E 001°39'1 1.0 7.8
2014-Oct-02 08:01N 65°45' E 001°37'1 0.8 7.8
2014-Oct-02 07:01N 65°45' E 001°35'1 0.7 7.8
2014-Oct-02 06:01N 65°44' E 001°34'1 0.5 7.8
2014-Oct-02 05:01N 65°43' E 001°33'0 0.5 7.9
2014-Oct-02 04:01N 65°43' E 001°33'0 0.2 7.9
2014-Oct-02 03:01N 65°43' E 001°33'0 0.2 7.9
2014-Oct-02 02:01N 65°43' E 001°32'0 0.4 8.0
2014-Oct-02 01:01N 65°43' E 001°32'1 0.7 7.9
2014-Oct-01 23:01N 65°43' E 001°28'1 0.8 7.9
2014-Oct-01 22:01N 65°43' E 001°26'2 0.9 7.9
2014-Oct-01 20:01N 65°42' E 001°22'1 0.9 7.9
2014-Oct-01 19:01N 65°41' E 001°21'1 0.9 8.0
2014-Oct-01 18:01N 65°40' E 001°20'1 0.7 8.0
2014-Oct-01 17:01N 65°40' E 001°20'1 0.5 8.0
2014-Oct-01 16:01N 65°39' E 001°20'0 0.4 8.0
2014-Oct-01 15:01N 65°39' E 001°20'0 0.2 8.0
2014-Oct-01 14:01N 65°39' E 001°20'0 0.0 8.0
2014-Oct-01 13:01N 65°39' E 001°20'0 0.3 8.0
2014-Oct-01 12:01N 65°39' E 001°19'0 0.5 8.0
2014-Oct-01 11:01N 65°39' E 001°19'0 0.3 8.0
2014-Oct-01 10:01N 65°39' E 001°18'0 0.4 8.0
2014-Oct-01 09:01N 65°39' E 001°17'1 0.6 8.1
2014-Oct-01 08:01N 65°39' E 001°15'1 0.8 8.1
2014-Oct-01 07:01N 65°39' E 001°14'1 0.9 8.1
2014-Oct-01 06:01N 65°38' E 001°12'1 1.1 8.1
2014-Oct-01 05:01N 65°37' E 001°10'1 1.2 8.1
2014-Oct-01 04:01N 65°36' E 001°09'1 1.1 8.1
2014-Oct-01 03:01N 65°35' E 001°09'1 1.0 8.1
2014-Oct-01 02:01N 65°34' E 001°10'1 0.8 8.0
2014-Oct-01 01:01N 65°33' E 001°11'1 0.7 8.1
2014-Oct-01 00:01N 65°33' E 001°12'0 0.0 8.1
2014-Sep-30 23:01N 65°33' E 001°12'1 0.6 8.1
2014-Sep-30 22:01N 65°33' E 001°10'0 0.0 8.1
2014-Sep-30 21:01N 65°33' E 001°10'1 0.6 8.1
2014-Sep-30 20:01N 65°33' E 001°09'1 0.9 8.0
2014-Sep-30 19:01N 65°33' E 001°07'1 1.0 8.0
2014-Sep-30 18:01N 65°33' E 001°05'1 1.2 8.0
2014-Sep-30 17:01N 65°32' E 001°03'1 1.1 8.0
2014-Sep-30 16:01N 65°31' E 001°02'1 1.1 8.0
2014-Sep-30 15:01N 65°30' E 001°02'1 1.0 8.0
2014-Sep-30 14:01N 65°29' E 001°02'1 0.9 8.1
2014-Sep-30 13:01N 65°28' E 001°03'1 0.7 8.1
2014-Sep-30 12:01N 65°27' E 001°04'0 0.3 8.1
2014-Sep-30 11:01N 65°27' E 001°05'0 0.2 8.1
2014-Sep-30 10:01N 65°27' E 001°05'0 0.1 8.1
2014-Sep-30 09:01N 65°27' E 001°05'0 0.0 8.1
2014-Sep-30 08:01N 65°27' E 001°05'0 0.3 8.2
2014-Sep-30 07:01N 65°27' E 001°05'0 0.4 8.2
2014-Sep-30 06:01N 65°26' E 001°04'1 0.7 8.3
2014-Sep-30 04:01N 65°25' E 001°03'1 0.9 8.2
2014-Sep-30 03:01N 65°24' E 001°03'1 1.1 8.3
2014-Sep-30 02:01N 65°23' E 001°03'1 1.1 8.2
2014-Sep-30 01:01N 65°22' E 001°04'1 1.1 8.2
2014-Sep-30 00:01N 65°21' E 001°06'1 1.1 8.2
2014-Sep-29 23:01N 65°21' E 001°08'1 1.1 8.3
2014-Sep-29 22:01N 65°21' E 001°11'1 1.0 8.3
2014-Sep-29 21:01N 65°21' E 001°13'1 0.8 8.3
2014-Sep-29 20:01N 65°21' E 001°15'1 0.7 8.3
2014-Sep-29 19:01N 65°22' E 001°15'1 0.5 8.3
2014-Sep-29 18:01N 65°23' E 001°15'0 0.5 8.3
2014-Sep-29 17:01N 65°23' E 001°14'0 0.4 8.3
2014-Sep-29 16:01N 65°23' E 001°13'0 0.4 8.4
2014-Sep-29 15:01N 65°23' E 001°12'1 0.5 8.4
2014-Sep-29 14:01N 65°23' E 001°12'1 1.3 8.3
2014-Sep-29 13:01N 65°21' E 001°12'0 0.0 8.4
2014-Sep-29 12:01N 65°21' E 001°12'1 0.7 8.3
2014-Sep-29 11:01N 65°21' E 001°13'1 0.7 8.3
2014-Sep-29 10:01N 65°20' E 001°15'1 0.8 8.4
2014-Sep-29 09:01N 65°21' E 001°17'1 0.8 8.4
2014-Sep-29 08:01N 65°21' E 001°19'1 0.9 8.3
2014-Sep-29 07:01N 65°22' E 001°20'1 1.0 8.4
2014-Sep-29 06:01N 65°23' E 001°20'1 0.9 8.3
2014-Sep-29 05:01N 65°23' E 001°20'1 0.8 8.3
2014-Sep-29 04:01N 65°24' E 001°18'1 0.8 8.3
2014-Sep-29 03:01N 65°24' E 001°17'1 0.8 8.3
2014-Sep-29 02:01N 65°24' E 001°15'1 0.7 8.3
2014-Sep-29 01:01N 65°24' E 001°13'1 0.7 8.4
2014-Sep-29 00:01N 65°24' E 001°12'1 0.6 8.4
2014-Sep-28 23:01N 65°23' E 001°11'0 0.5 8.5
2014-Sep-28 22:01N 65°23' E 001°11'0 0.3 8.5
2014-Sep-28 21:01N 65°22' E 001°11'1 0.3 8.5
2014-Sep-28 19:01N 65°23' E 001°12'1 0.5 8.4
2014-Sep-28 18:01N 65°23' E 001°12'1 0.9 8.4
2014-Sep-28 17:01N 65°24' E 001°11'1 1.0 8.5
2014-Sep-28 16:01N 65°25' E 001°10'1 1.3 8.6
2014-Sep-28 15:01N 65°26' E 001°07'1 1.5 8.7
2014-Sep-28 14:01N 65°26' E 001°04'2 1.6 8.7
2014-Sep-28 13:01N 65°27' E 001°00'2 1.6 8.7
2014-Sep-28 12:01N 65°26' E 000°56'1 1.5 8.7
2014-Sep-28 11:01N 65°26' E 000°53'1 1.4 8.6
2014-Sep-28 10:01N 65°25' E 000°50'1 1.2 8.6
2014-Sep-28 09:01N 65°25' E 000°48'1 1.1 8.5
2014-Sep-28 08:01N 65°24' E 000°46'1 0.9 8.5
2014-Sep-28 07:01N 65°23' E 000°45'1 0.8 8.5
2014-Sep-28 06:01N 65°22' E 000°44'1 0.5 8.5
2014-Sep-28 05:01N 65°22' E 000°45'0 0.3 8.5
2014-Sep-28 04:01N 65°22' E 000°45'0 0.4 8.6
2014-Sep-28 03:01N 65°22' E 000°46'0 0.2 8.5
2014-Sep-28 02:01N 65°22' E 000°47'0 0.2 8.5
2014-Sep-28 01:01N 65°22' E 000°47'0 0.3 8.6
2014-Sep-28 00:01N 65°22' E 000°46'1 0.6 8.6
2014-Sep-27 23:01N 65°22' E 000°45'1 0.7 8.5
2014-Sep-27 22:01N 65°22' E 000°43'1 0.8 8.6
2014-Sep-27 21:01N 65°21' E 000°42'1 0.8 8.6
2014-Sep-27 20:01N 65°21' E 000°41'1 0.7 8.6
2014-Sep-27 19:01N 65°20' E 000°40'1 0.7 8.6
2014-Sep-27 18:01N 65°19' E 000°40'1 0.6 8.6
2014-Sep-27 17:01N 65°19' E 000°40'1 0.5 8.6
2014-Sep-27 16:01N 65°18' E 000°41'1 0.8 8.6
2014-Sep-27 15:01N 65°18' E 000°43'1 0.6 8.6
2014-Sep-27 14:01N 65°18' E 000°44'0 0.3 8.6
2014-Sep-27 13:01N 65°19' E 000°45'0 0.3 8.7
2014-Sep-27 12:01N 65°19' E 000°45'0 0.4 8.6
2014-Sep-27 11:01N 65°19' E 000°44'1 0.6 8.6
2014-Sep-27 09:01N 65°19' E 000°41'1 0.8 8.6
2014-Sep-27 08:01N 65°19' E 000°40'1 0.9 8.6
2014-Sep-27 07:01N 65°19' E 000°38'1 0.6 8.6
2014-Sep-27 06:01N 65°19' E 000°36'1 0.5 8.7
2014-Sep-27 05:01N 65°18' E 000°36'0 0.5 8.7
2014-Sep-27 04:01N 65°18' E 000°35'0 0.4 8.7
2014-Sep-27 03:01N 65°17' E 000°35'0 0.3 8.8
2014-Sep-27 02:01N 65°17' E 000°36'1 0.4 8.8
2014-Sep-27 00:01N 65°18' E 000°37'1 0.6 9.0
2014-Sep-26 23:01N 65°18' E 000°37'1 0.9 9.0
2014-Sep-26 22:01N 65°19' E 000°35'1 1.0 9.1
2014-Sep-26 21:01N 65°19' E 000°33'1 1.1 9.1
2014-Sep-26 20:01N 65°20' E 000°30'1 1.1 9.1
2014-Sep-26 19:01N 65°20' E 000°28'1 1.1 9.2
2014-Sep-26 18:01N 65°19' E 000°25'1 1.1 9.3
2014-Sep-26 17:01N 65°19' E 000°22'1 1.0 9.4
2014-Sep-26 16:01N 65°19' E 000°20'1 0.8 9.5
2014-Sep-26 15:01N 65°19' E 000°18'1 0.6 9.5
2014-Sep-26 14:01N 65°18' E 000°17'1 0.5 9.5
2014-Sep-26 13:01N 65°18' E 000°16'0 0.5 9.6
2014-Sep-26 12:01N 65°17' E 000°16'1 0.5 9.6
2014-Sep-26 11:01N 65°17' E 000°15'0 0.4 9.6
2014-Sep-26 10:01N 65°17' E 000°14'1 0.5 9.6
2014-Sep-26 09:01N 65°17' E 000°13'1 0.7 9.5
2014-Sep-26 08:01N 65°17' E 000°11'1 1.0 9.5
2014-Sep-26 07:01N 65°18' E 000°09'1 1.3 9.4
2014-Sep-26 06:01N 65°18' E 000°06'1 1.4 9.4
2014-Sep-26 05:01N 65°18' E 000°02'1 1.4 9.5
2014-Sep-26 04:01N 65°18' W 000°01'1 1.3 9.6
2014-Sep-26 03:01N 65°18' W 000°04'1 1.1 9.6
2014-Sep-26 02:01N 65°18' W 000°06'1 1.0 9.6
2014-Sep-26 01:01N 65°17' W 000°08'1 0.9 9.6
2014-Sep-26 00:01N 65°16' W 000°09'1 0.9 9.6
2014-Sep-25 23:01N 65°15' W 000°10'1 0.8 9.6
2014-Sep-25 22:01N 65°14' W 000°10'1 0.7 9.6
2014-Sep-25 21:01N 65°14' W 000°10'0 0.4 9.6
2014-Sep-25 20:01N 65°13' W 000°10'0 0.3 9.6
2014-Sep-25 19:01N 65°13' W 000°10'0 0.1 9.6
2014-Sep-25 18:01N 65°13' W 000°10'0 0.3 9.6
2014-Sep-25 17:01N 65°13' W 000°10'1 0.5 9.6
2014-Sep-25 16:01N 65°14' W 000°11'1 0.6 9.5
2014-Sep-25 15:01N 65°14' W 000°12'0 0.5 9.6
2014-Sep-25 14:01N 65°14' W 000°13'1 0.6 9.6
2014-Sep-25 13:01N 65°14' W 000°15'0 0.5 9.6
2014-Sep-25 12:01N 65°14' W 000°16'0 0.4 9.6
2014-Sep-25 11:01N 65°13' W 000°16'0 0.4 9.6
2014-Sep-25 10:01N 65°13' W 000°16'0 0.4 9.6
2014-Sep-25 09:01N 65°13' W 000°16'0 0.2 9.6
2014-Sep-25 08:01N 65°13' W 000°16'0 0.2 9.6
2014-Sep-25 07:01N 65°12' W 000°16'0 0.1 9.6
2014-Sep-25 06:01N 65°12' W 000°16'0 0.1 9.6
2014-Sep-25 05:01N 65°12' W 000°16'0 0.2 9.5
2014-Sep-25 04:01N 65°12' W 000°16'0 0.2 9.5
2014-Sep-25 03:01N 65°13' W 000°17'0 0.3 9.5
2014-Sep-25 02:01N 65°13' W 000°17'0 0.3 9.5
2014-Sep-25 01:01N 65°13' W 000°18'0 0.3 9.5
2014-Sep-25 00:01N 65°13' W 000°19'0 0.4 9.5
2014-Sep-24 23:01N 65°13' W 000°20'0 0.3 9.5
2014-Sep-24 22:01N 65°13' W 000°20'0 0.1 9.5
2014-Sep-24 21:01N 65°13' W 000°21'0 0.1 9.6
2014-Sep-24 20:01N 65°13' W 000°21'0 0.2 9.6
2014-Sep-24 19:01N 65°13' W 000°21'0 0.3 9.6
2014-Sep-24 18:01N 65°13' W 000°21'0 0.4 9.6
2014-Sep-24 17:01N 65°14' W 000°21'1 0.5 9.6
2014-Sep-24 16:01N 65°14' W 000°21'1 0.6 9.6
2014-Sep-24 15:01N 65°15' W 000°21'0 0.5 9.6
2014-Sep-24 14:01N 65°16' W 000°21'1 0.6 9.6
2014-Sep-24 13:01N 65°16' W 000°21'1 0.6 9.6
2014-Sep-24 12:01N 65°17' W 000°21'1 0.5 9.6
2014-Sep-24 11:01N 65°17' W 000°22'0 0.4 9.6
2014-Sep-24 10:01N 65°18' W 000°22'0 0.4 9.6
2014-Sep-24 09:01N 65°18' W 000°23'0 0.2 9.6
2014-Sep-24 08:01N 65°18' W 000°23'0 0.3 9.8
2014-Sep-24 07:01N 65°18' W 000°23'0 0.3 9.6
2014-Sep-24 06:01N 65°19' W 000°23'1 0.6 9.8
2014-Sep-24 05:01N 65°19' W 000°23'0 0.5 9.8
2014-Sep-24 04:01N 65°20' W 000°22'0 0.5 9.6
2014-Sep-24 03:01N 65°20' W 000°22'1 0.5 9.6
2014-Sep-24 02:01N 65°21' W 000°22'1 0.5 9.6
2014-Sep-24 01:01N 65°21' W 000°22'1 0.5 9.6
2014-Sep-24 00:01N 65°22' W 000°22'0 0.5 9.6
2014-Sep-23 23:01N 65°22' W 000°23'0 0.3 9.6
2014-Sep-23 22:01N 65°22' W 000°23'0 0.2 9.6
2014-Sep-23 21:01N 65°22' W 000°24'0 0.2 9.6
2014-Sep-23 20:01N 65°22' W 000°24'0 0.2 9.7
2014-Sep-23 19:01N 65°22' W 000°25'0 0.1 9.6
2014-Sep-23 18:01N 65°22' W 000°24'0 0.3 9.6
2014-Sep-23 17:01N 65°22' W 000°24'1 0.4 9.6
2014-Sep-23 15:01N 65°23' W 000°23'0 0.4 9.6
2014-Sep-23 14:01N 65°23' W 000°22'0 0.3 9.6
2014-Sep-23 13:01N 65°23' W 000°22'0 0.3 9.6
2014-Sep-23 12:01N 65°24' W 000°22'0 0.2 9.6
2014-Sep-23 11:01N 65°24' W 000°22'0 0.2 9.6
2014-Sep-23 10:01N 65°24' W 000°22'0 0.1 9.5
2014-Sep-23 09:01N 65°24' W 000°23'0 0.2 9.5
2014-Sep-23 08:01N 65°24' W 000°23'0 0.2 9.5
2014-Sep-23 07:01N 65°24' W 000°24'0 0.1 9.5
2014-Sep-23 06:01N 65°24' W 000°24'0 0.1 9.5
2014-Sep-23 05:01N 65°24' W 000°24'0 0.2 9.5
2014-Sep-23 04:01N 65°24' W 000°24'0 0.2 9.6
2014-Sep-23 03:01N 65°24' W 000°23'0 0.1 9.6
2014-Sep-23 02:01N 65°24' W 000°23'0 0.1 9.6
2014-Sep-23 01:01N 65°24' W 000°23'0 0.2 9.6
2014-Sep-23 00:01N 65°24' W 000°23'0 0.2 9.6
2014-Sep-22 23:01N 65°25' W 000°23'0 0.3 9.6
2014-Sep-22 22:01N 65°25' W 000°24'0 0.5 9.6
2014-Sep-22 21:01N 65°25' W 000°25'0 0.4 9.6
2014-Sep-22 20:01N 65°24' W 000°26'1 0.5 9.6
2014-Sep-22 19:01N 65°24' W 000°27'0 0.5 9.6
2014-Sep-22 18:01N 65°24' W 000°27'0 0.4 9.6
2014-Sep-22 17:01N 65°23' W 000°27'0 0.3 9.7
2014-Sep-22 16:01N 65°23' W 000°27'0 0.2 9.7
2014-Sep-22 15:01N 65°23' W 000°27'0 0.2 9.6
2014-Sep-22 14:01N 65°23' W 000°27'0 0.2 9.6
2014-Sep-22 13:01N 65°23' W 000°26'0 0.2 9.6
2014-Sep-22 12:01N 65°23' W 000°26'0 0.1 9.6
2014-Sep-22 11:01N 65°23' W 000°26'   9.7
Track history (hours):
 
Tides and Currents Weather Stations Pressure Air Temp Water Temp Dewpoint Dewpoint Depression Visibility Wind Speed Wind Dir Waves Ship Positions

Drifting buoy 44845

Last reported at 2014-Oct-02 11:01 UTC. Time now 2014-Oct-02 12:29 UTC.
Position N 65°46' E 001°44'.

Water temperature 7.8 ° C

Date/timePositionNaut miles runAvg speedWind from/ knotsBaromVisibWave heightAir tempDewpointWater temp
2014-Oct-02 11:01N 65°46' E 001°44'1 1.1 7.8
2014-Oct-02 10:01N 65°46' E 001°41'1 1.1 7.8
2014-Oct-02 09:01N 65°45' E 001°39'1 1.0 7.8
2014-Oct-02 08:01N 65°45' E 001°37'1 0.8 7.8
2014-Oct-02 07:01N 65°45' E 001°35'1 0.7 7.8
2014-Oct-02 06:01N 65°44' E 001°34'1 0.5 7.8
2014-Oct-02 05:01N 65°43' E 001°33'0 0.5 7.9
2014-Oct-02 04:01N 65°43' E 001°33'0 0.2 7.9
2014-Oct-02 03:01N 65°43' E 001°33'0 0.2 7.9
2014-Oct-02 02:01N 65°43' E 001°32'0 0.4 8.0
2014-Oct-02 01:01N 65°43' E 001°32'1 0.7 7.9
2014-Oct-01 23:01N 65°43' E 001°28'1 0.8 7.9
2014-Oct-01 22:01N 65°43' E 001°26'2 0.9 7.9
2014-Oct-01 20:01N 65°42' E 001°22'1 0.9 7.9
2014-Oct-01 19:01N 65°41' E 001°21'1 0.9 8.0
2014-Oct-01 18:01N 65°40' E 001°20'1 0.7 8.0
2014-Oct-01 17:01N 65°40' E 001°20'1 0.5 8.0
2014-Oct-01 16:01N 65°39' E 001°20'0 0.4 8.0
2014-Oct-01 15:01N 65°39' E 001°20'0 0.2 8.0
2014-Oct-01 14:01N 65°39' E 001°20'0 0.0 8.0
2014-Oct-01 13:01N 65°39' E 001°20'0 0.3 8.0
2014-Oct-01 12:01N 65°39' E 001°19'0 0.5 8.0
2014-Oct-01 11:01N 65°39' E 001°19'0 0.3 8.0
2014-Oct-01 10:01N 65°39' E 001°18'0 0.4 8.0
2014-Oct-01 09:01N 65°39' E 001°17'1 0.6 8.1
2014-Oct-01 08:01N 65°39' E 001°15'1 0.8 8.1
2014-Oct-01 07:01N 65°39' E 001°14'1 0.9 8.1
2014-Oct-01 06:01N 65°38' E 001°12'1 1.1 8.1
2014-Oct-01 05:01N 65°37' E 001°10'1 1.2 8.1
2014-Oct-01 04:01N 65°36' E 001°09'1 1.1 8.1
2014-Oct-01 03:01N 65°35' E 001°09'1 1.0 8.1
2014-Oct-01 02:01N 65°34' E 001°10'1 0.8 8.0
2014-Oct-01 01:01N 65°33' E 001°11'1 0.7 8.1
2014-Oct-01 00:01N 65°33' E 001°12'0 0.0 8.1
2014-Sep-30 23:01N 65°33' E 001°12'1 0.6 8.1
2014-Sep-30 22:01N 65°33' E 001°10'0 0.0 8.1
2014-Sep-30 21:01N 65°33' E 001°10'1 0.6 8.1
2014-Sep-30 20:01N 65°33' E 001°09'1 0.9 8.0
2014-Sep-30 19:01N 65°33' E 001°07'1 1.0 8.0
2014-Sep-30 18:01N 65°33' E 001°05'1 1.2 8.0
2014-Sep-30 17:01N 65°32' E 001°03'1 1.1 8.0
2014-Sep-30 16:01N 65°31' E 001°02'1 1.1 8.0
2014-Sep-30 15:01N 65°30' E 001°02'1 1.0 8.0
2014-Sep-30 14:01N 65°29' E 001°02'1 0.9 8.1
2014-Sep-30 13:01N 65°28' E 001°03'1 0.7 8.1
2014-Sep-30 12:01N 65°27' E 001°04'0 0.3 8.1
2014-Sep-30 11:01N 65°27' E 001°05'0 0.2 8.1
2014-Sep-30 10:01N 65°27' E 001°05'0 0.1 8.1
2014-Sep-30 09:01N 65°27' E 001°05'0 0.0 8.1
2014-Sep-30 08:01N 65°27' E 001°05'0 0.3 8.2
2014-Sep-30 07:01N 65°27' E 001°05'0 0.4 8.2
2014-Sep-30 06:01N 65°26' E 001°04'1 0.7 8.3
2014-Sep-30 04:01N 65°25' E 001°03'1 0.9 8.2
2014-Sep-30 03:01N 65°24' E 001°03'1 1.1 8.3
2014-Sep-30 02:01N 65°23' E 001°03'1 1.1 8.2
2014-Sep-30 01:01N 65°22' E 001°04'1 1.1 8.2
2014-Sep-30 00:01N 65°21' E 001°06'1 1.1 8.2
2014-Sep-29 23:01N 65°21' E 001°08'1 1.1 8.3
2014-Sep-29 22:01N 65°21' E 001°11'1 1.0 8.3
2014-Sep-29 21:01N 65°21' E 001°13'1 0.8 8.3
2014-Sep-29 20:01N 65°21' E 001°15'1 0.7 8.3
2014-Sep-29 19:01N 65°22' E 001°15'1 0.5 8.3
2014-Sep-29 18:01N 65°23' E 001°15'0 0.5 8.3
2014-Sep-29 17:01N 65°23' E 001°14'0 0.4 8.3
2014-Sep-29 16:01N 65°23' E 001°13'0 0.4 8.4
2014-Sep-29 15:01N 65°23' E 001°12'1 0.5 8.4
2014-Sep-29 14:01N 65°23' E 001°12'1 1.3 8.3
2014-Sep-29 13:01N 65°21' E 001°12'0 0.0 8.4
2014-Sep-29 12:01N 65°21' E 001°12'1 0.7 8.3
2014-Sep-29 11:01N 65°21' E 001°13'1 0.7 8.3
2014-Sep-29 10:01N 65°20' E 001°15'1 0.8 8.4
2014-Sep-29 09:01N 65°21' E 001°17'1 0.8 8.4
2014-Sep-29 08:01N 65°21' E 001°19'1 0.9 8.3
2014-Sep-29 07:01N 65°22' E 001°20'1 1.0 8.4
2014-Sep-29 06:01N 65°23' E 001°20'1 0.9 8.3
2014-Sep-29 05:01N 65°23' E 001°20'1 0.8 8.3
2014-Sep-29 04:01N 65°24' E 001°18'1 0.8 8.3
2014-Sep-29 03:01N 65°24' E 001°17'1 0.8 8.3
2014-Sep-29 02:01N 65°24' E 001°15'1 0.7 8.3
2014-Sep-29 01:01N 65°24' E 001°13'1 0.7 8.4
2014-Sep-29 00:01N 65°24' E 001°12'1 0.6 8.4
2014-Sep-28 23:01N 65°23' E 001°11'0 0.5 8.5
2014-Sep-28 22:01N 65°23' E 001°11'0 0.3 8.5
2014-Sep-28 21:01N 65°22' E 001°11'1 0.3 8.5
2014-Sep-28 19:01N 65°23' E 001°12'1 0.5 8.4
2014-Sep-28 18:01N 65°23' E 001°12'1 0.9 8.4
2014-Sep-28 17:01N 65°24' E 001°11'1 1.0 8.5
2014-Sep-28 16:01N 65°25' E 001°10'1 1.3 8.6
2014-Sep-28 15:01N 65°26' E 001°07'1 1.5 8.7
2014-Sep-28 14:01N 65°26' E 001°04'2 1.6 8.7
2014-Sep-28 13:01N 65°27' E 001°00'2 1.6 8.7
2014-Sep-28 12:01N 65°26' E 000°56'1 1.5 8.7
2014-Sep-28 11:01N 65°26' E 000°53'1 1.4 8.6
2014-Sep-28 10:01N 65°25' E 000°50'1 1.2 8.6
2014-Sep-28 09:01N 65°25' E 000°48'1 1.1 8.5
2014-Sep-28 08:01N 65°24' E 000°46'1 0.9 8.5
2014-Sep-28 07:01N 65°23' E 000°45'1 0.8 8.5
2014-Sep-28 06:01N 65°22' E 000°44'1 0.5 8.5
2014-Sep-28 05:01N 65°22' E 000°45'0 0.3 8.5
2014-Sep-28 04:01N 65°22' E 000°45'0 0.4 8.6
2014-Sep-28 03:01N 65°22' E 000°46'0 0.2 8.5
2014-Sep-28 02:01N 65°22' E 000°47'0 0.2 8.5
2014-Sep-28 01:01N 65°22' E 000°47'0 0.3 8.6
2014-Sep-28 00:01N 65°22' E 000°46'1 0.6 8.6
2014-Sep-27 23:01N 65°22' E 000°45'1 0.7 8.5
2014-Sep-27 22:01N 65°22' E 000°43'1 0.8 8.6
2014-Sep-27 21:01N 65°21' E 000°42'1 0.8 8.6
2014-Sep-27 20:01N 65°21' E 000°41'1 0.7 8.6
2014-Sep-27 19:01N 65°20' E 000°40'1 0.7 8.6
2014-Sep-27 18:01N 65°19' E 000°40'1 0.6 8.6
2014-Sep-27 17:01N 65°19' E 000°40'1 0.5 8.6
2014-Sep-27 16:01N 65°18' E 000°41'1 0.8 8.6
2014-Sep-27 15:01N 65°18' E 000°43'1 0.6 8.6
2014-Sep-27 14:01N 65°18' E 000°44'0 0.3 8.6
2014-Sep-27 13:01N 65°19' E 000°45'0 0.3 8.7
2014-Sep-27 12:01N 65°19' E 000°45'0 0.4 8.6
2014-Sep-27 11:01N 65°19' E 000°44'1 0.6 8.6
2014-Sep-27 09:01N 65°19' E 000°41'1 0.8 8.6
2014-Sep-27 08:01N 65°19' E 000°40'1 0.9 8.6
2014-Sep-27 07:01N 65°19' E 000°38'1 0.6 8.6
2014-Sep-27 06:01N 65°19' E 000°36'1 0.5 8.7
2014-Sep-27 05:01N 65°18' E 000°36'0 0.5 8.7
2014-Sep-27 04:01N 65°18' E 000°35'0 0.4 8.7
2014-Sep-27 03:01N 65°17' E 000°35'0 0.3 8.8
2014-Sep-27 02:01N 65°17' E 000°36'1 0.4 8.8
2014-Sep-27 00:01N 65°18' E 000°37'1 0.6 9.0
2014-Sep-26 23:01N 65°18' E 000°37'1 0.9 9.0
2014-Sep-26 22:01N 65°19' E 000°35'1 1.0 9.1
2014-Sep-26 21:01N 65°19' E 000°33'1 1.1 9.1
2014-Sep-26 20:01N 65°20' E 000°30'1 1.1 9.1
2014-Sep-26 19:01N 65°20' E 000°28'1 1.1 9.2
2014-Sep-26 18:01N 65°19' E 000°25'1 1.1 9.3
2014-Sep-26 17:01N 65°19' E 000°22'1 1.0 9.4
2014-Sep-26 16:01N 65°19' E 000°20'1 0.8 9.5
2014-Sep-26 15:01N 65°19' E 000°18'1 0.6 9.5
2014-Sep-26 14:01N 65°18' E 000°17'1 0.5 9.5
2014-Sep-26 13:01N 65°18' E 000°16'0 0.5 9.6
2014-Sep-26 12:01N 65°17' E 000°16'1 0.5 9.6
2014-Sep-26 11:01N 65°17' E 000°15'0 0.4 9.6
2014-Sep-26 10:01N 65°17' E 000°14'1 0.5 9.6
2014-Sep-26 09:01N 65°17' E 000°13'1 0.7 9.5
2014-Sep-26 08:01N 65°17' E 000°11'1 1.0 9.5
2014-Sep-26 07:01N 65°18' E 000°09'1 1.3 9.4
2014-Sep-26 06:01N 65°18' E 000°06'1 1.4 9.4
2014-Sep-26 05:01N 65°18' E 000°02'1 1.4 9.5
2014-Sep-26 04:01N 65°18' W 000°01'1 1.3 9.6
2014-Sep-26 03:01N 65°18' W 000°04'1 1.1 9.6
2014-Sep-26 02:01N 65°18' W 000°06'1 1.0 9.6
2014-Sep-26 01:01N 65°17' W 000°08'1 0.9 9.6
2014-Sep-26 00:01N 65°16' W 000°09'1 0.9 9.6
2014-Sep-25 23:01N 65°15' W 000°10'1 0.8 9.6
2014-Sep-25 22:01N 65°14' W 000°10'1 0.7 9.6
2014-Sep-25 21:01N 65°14' W 000°10'0 0.4 9.6
2014-Sep-25 20:01N 65°13' W 000°10'0 0.3 9.6
2014-Sep-25 19:01N 65°13' W 000°10'0 0.1 9.6
2014-Sep-25 18:01N 65°13' W 000°10'0 0.3 9.6
2014-Sep-25 17:01N 65°13' W 000°10'1 0.5 9.6
2014-Sep-25 16:01N 65°14' W 000°11'1 0.6 9.5
2014-Sep-25 15:01N 65°14' W 000°12'0 0.5 9.6
2014-Sep-25 14:01N 65°14' W 000°13'1 0.6 9.6
2014-Sep-25 13:01N 65°14' W 000°15'0 0.5 9.6
2014-Sep-25 12:01N 65°14' W 000°16'0 0.4 9.6
2014-Sep-25 11:01N 65°13' W 000°16'0 0.4 9.6
2014-Sep-25 10:01N 65°13' W 000°16'0 0.4 9.6
2014-Sep-25 09:01N 65°13' W 000°16'0 0.2 9.6
2014-Sep-25 08:01N 65°13' W 000°16'0 0.2 9.6
2014-Sep-25 07:01N 65°12' W 000°16'0 0.1 9.6
2014-Sep-25 06:01N 65°12' W 000°16'0 0.1 9.6
2014-Sep-25 05:01N 65°12' W 000°16'0 0.2 9.5
2014-Sep-25 04:01N 65°12' W 000°16'0 0.2 9.5
2014-Sep-25 03:01N 65°13' W 000°17'0 0.3 9.5
2014-Sep-25 02:01N 65°13' W 000°17'0 0.3 9.5
2014-Sep-25 01:01N 65°13' W 000°18'0 0.3 9.5
2014-Sep-25 00:01N 65°13' W 000°19'0 0.4 9.5
2014-Sep-24 23:01N 65°13' W 000°20'0 0.3 9.5
2014-Sep-24 22:01N 65°13' W 000°20'0 0.1 9.5
2014-Sep-24 21:01N 65°13' W 000°21'0 0.1 9.6
2014-Sep-24 20:01N 65°13' W 000°21'0 0.2 9.6
2014-Sep-24 19:01N 65°13' W 000°21'0 0.3 9.6
2014-Sep-24 18:01N 65°13' W 000°21'0 0.4 9.6
2014-Sep-24 17:01N 65°14' W 000°21'1 0.5 9.6
2014-Sep-24 16:01N 65°14' W 000°21'1 0.6 9.6
2014-Sep-24 15:01N 65°15' W 000°21'0 0.5 9.6
2014-Sep-24 14:01N 65°16' W 000°21'1 0.6 9.6
2014-Sep-24 13:01N 65°16' W 000°21'1 0.6 9.6
2014-Sep-24 12:01N 65°17' W 000°21'1 0.5 9.6
2014-Sep-24 11:01N 65°17' W 000°22'0 0.4 9.6
2014-Sep-24 10:01N 65°18' W 000°22'0 0.4 9.6
2014-Sep-24 09:01N 65°18' W 000°23'0 0.2 9.6
2014-Sep-24 08:01N 65°18' W 000°23'0 0.3 9.8
2014-Sep-24 07:01N 65°18' W 000°23'0 0.3 9.6
2014-Sep-24 06:01N 65°19' W 000°23'1 0.6 9.8
2014-Sep-24 05:01N 65°19' W 000°23'0 0.5 9.8
2014-Sep-24 04:01N 65°20' W 000°22'0 0.5 9.6
2014-Sep-24 03:01N 65°20' W 000°22'1 0.5 9.6
2014-Sep-24 02:01N 65°21' W 000°22'1 0.5 9.6
2014-Sep-24 01:01N 65°21' W 000°22'1 0.5 9.6
2014-Sep-24 00:01N 65°22' W 000°22'0 0.5 9.6
2014-Sep-23 23:01N 65°22' W 000°23'0 0.3 9.6
2014-Sep-23 22:01N 65°22' W 000°23'0 0.2 9.6
2014-Sep-23 21:01N 65°22' W 000°24'0 0.2 9.6
2014-Sep-23 20:01N 65°22' W 000°24'0 0.2 9.7
2014-Sep-23 19:01N 65°22' W 000°25'0 0.1 9.6
2014-Sep-23 18:01N 65°22' W 000°24'0 0.3 9.6
2014-Sep-23 17:01N 65°22' W 000°24'1 0.4 9.6
2014-Sep-23 15:01N 65°23' W 000°23'0 0.4 9.6
2014-Sep-23 14:01N 65°23' W 000°22'0 0.3 9.6
2014-Sep-23 13:01N 65°23' W 000°22'0 0.3 9.6
2014-Sep-23 12:01N 65°24' W 000°22'0 0.2 9.6
2014-Sep-23 11:01N 65°24' W 000°22'0 0.2 9.6
2014-Sep-23 10:01N 65°24' W 000°22'0 0.1 9.5
2014-Sep-23 09:01N 65°24' W 000°23'0 0.2 9.5
2014-Sep-23 08:01N 65°24' W 000°23'0 0.2 9.5
2014-Sep-23 07:01N 65°24' W 000°24'0 0.1 9.5
2014-Sep-23 06:01N 65°24' W 000°24'0 0.1 9.5
2014-Sep-23 05:01N 65°24' W 000°24'0 0.2 9.5
2014-Sep-23 04:01N 65°24' W 000°24'0 0.2 9.6
2014-Sep-23 03:01N 65°24' W 000°23'0 0.1 9.6
2014-Sep-23 02:01N 65°24' W 000°23'0 0.1 9.6
2014-Sep-23 01:01N 65°24' W 000°23'0 0.2 9.6
2014-Sep-23 00:01N 65°24' W 000°23'0 0.2 9.6
2014-Sep-22 23:01N 65°25' W 000°23'0 0.3 9.6
2014-Sep-22 22:01N 65°25' W 000°24'0 0.5 9.6
2014-Sep-22 21:01N 65°25' W 000°25'0 0.4 9.6
2014-Sep-22 20:01N 65°24' W 000°26'1 0.5 9.6
2014-Sep-22 19:01N 65°24' W 000°27'0 0.5 9.6
2014-Sep-22 18:01N 65°24' W 000°27'0 0.4 9.6
2014-Sep-22 17:01N 65°23' W 000°27'0 0.3 9.7
2014-Sep-22 16:01N 65°23' W 000°27'0 0.2 9.7
2014-Sep-22 15:01N 65°23' W 000°27'0 0.2 9.6
2014-Sep-22 14:01N 65°23' W 000°27'0 0.2 9.6
2014-Sep-22 13:01N 65°23' W 000°26'0 0.2 9.6
2014-Sep-22 12:01N 65°23' W 000°26'0 0.1 9.6
2014-Sep-22 11:01N 65°23' W 000°26'   9.7

Dump ship's entire track history